Golden Gate, Florida
Current Conditions -  °F | °C
As of 12:19 PM on Thursday 23 Oct 2014 (Local Time) from KAPF Reporting Station
Overcast Overcast  
Wind Chill: 81°   Ceiling: 3200
Heat Index: 84°   Visibility: 10mi
Dew Point: 70°   Wind: 17mph
Humidity: 69%   Direction: 50°NE
Pressure: 29.93"   Gusts: 23mph
Location:  26.18°N, 81.7°W
Report Text: KAPF 231619Z 05015G20KT 10SM SCT027 OVC032 27/21 A2993 RMK AO2 T02720211
Loading
Personal Weather Stations






























Interactive Weather Map
Tropical Storm Tracking
New forecast layout! Learn more

10-Day Weather Forecast

Advertisements
Track Severe Weather on mobile